KPTB/PTB METAR and TAF weather

Enter ICAO airport designator
Station Type Date Time Source
KPTB METAR 2019/04/18 22:15 UTC NOAA

KPTB 182215Z AUTO 17008G18KT 10SM CLR 26/09 A2990 RMK AO2 T02620093


Station Type Date Time Source
KPTB Decoded METAR 2019/04/18 22:15 UTC NOAA

Petersburg, Dinwiddie County Airport, VA, United States (KPTB) 37-11N 077-31W
Apr 18, 2019 - 06:15 PM EDT / 2019.04.18 2215 UTC
Wind: from the S (170 degrees) at 9 MPH (8 KT) gusting to 21 MPH (18 KT):0
Visibility: 10 mile(s):0
Sky conditions: clear
Temperature: 79.2 F (26.2 C)
Dew Point: 48.7 F (9.3 C)
Relative Humidity: 34%
Pressure (altimeter): 29.9 in. Hg (1012 hPa)
ob: KPTB 182215Z AUTO 17008G18KT 10SM CLR 26/09 A2990 RMK AO2 T02620093
cycle: 22

Station Type Date Time Source
KPTB TAF UTC NOAA

Error!

Example: see airport list